Data for 05/19/2013

Time Sea-Level Adjusted Pressure Absolute Pressure Temperature Relative Humidity Dew Point   
(mb) (inHg) (mb) (inHg) (C) (F) (%) (C) (F)
00:05 1018 30.06 847 25.01 6.6 43.9 86 4.5 40
00:10 1018 30.06 847 25.01 6.5 43.7 86 4.4 39.9
00:15 1018 30.06 847 25.01 6.5 43.7 86 4.3 39.7
00:20 1018 30.06 847 25.01 6.5 43.8 83 3.9 39
00:25 1018 30.06 847 25.01 6.7 44.1 82 3.9 39.1
00:30 1018 30.06 847 25.01 6.7 44.1 82 3.9 39.1
00:35 1018 30.06 847 25.01 6.6 43.8 85 4.2 39.5
00:40 1018 30.06 847 25.01 6.4 43.6 86 4.3 39.7
00:45 1018 30.06 847 25.01 6.4 43.4 86 4.2 39.5
00:50 1018 30.06 847 25.01 6.5 43.6 85 4.1 39.4
00:55 1018 30.06 847 25.01 6.6 43.9 85 4.2 39.6
01:00 1018 30.06 847 25.01 6.5 43.7 86 4.3 39.8
01:05 1018 30.06 847 25.01 6.5 43.7 86 4.3 39.7
01:10 1018 30.06 847 25.01 6.5 43.6 86 4.3 39.7
01:15 1018 30.06 847 25.01 6.4 43.6 87 4.5 40.1
01:20 1018 30.06 847 25.01 6.4 43.5 89 4.6 40.3
01:25 1018 30.06 847 25.01 6.4 43.6 89 4.8 40.6
01:30 1018 30.06 847 25.01 6.2 43.2 90 4.7 40.5
01:35 1018 30.06 847 25.01 6 42.7 91 4.5 40.2
01:40 1018 30.06 847 25.01 5.8 42.5 91 4.5 40.1
01:45 1018 30.06 847 25.01 5.7 42.3 92 4.5 40.1
01:50 1018 30.06 847 25.01 5.6 42.2 93 4.6 40.2
01:55 1018 30.06 847 25.01 5.6 42.1 93 4.6 40.3
02:00 1018 30.06 847 25.01 5.6 42.1 93 4.6 40.3
02:05 1018 30.06 847 25.01 5.7 42.2 93 4.6 40.3
02:10 1018 30.06 847 25.01 5.9 42.5 92 4.7 40.5
02:15 1018 30.06 847 25.01 6.1 42.9 93 5 41
02:20 1018 30.06 847 25.01 6.3 43.4 92 5.2 41.4
02:25 1018 30.06 847 25.01 6.4 43.6 92 5.3 41.5
02:30 1018 30.06 847 25.01 6.4 43.6 93 5.3 41.6
02:35 1018 30.06 847 25.01 6.4 43.6 93 5.4 41.7
02:40 1018 30.06 847 25.01 6.5 43.7 93 5.5 41.9
02:45 1018 30.06 847 25.01 6.5 43.8 93 5.5 42
02:50 1018 30.06 847 25.01 6.5 43.8 94 5.6 42
02:55 1018 30.06 847 25.01 6.6 43.8 94 5.6 42.1
03:00 1018 30.06 847 25.01 6.6 43.9 94 5.6 42.1
03:05 1018 30.06 847 25.01 6.7 44 94 5.7 42.2
03:10 1018 30.06 847 25.01 6.7 44.1 93 5.7 42.3
03:15 1018 30.06 847 25.01 6.8 44.2 93 5.8 42.4
03:20 1018 30.06 847 25.01 6.8 44.3 93 5.7 42.2
03:25 1018 30.06 847 25.01 6.7 44.1 92 5.5 42
03:30 1018 30.06 847 25.01 6.7 44.1 93 5.6 42.1
03:35 1018 30.06 847 25.01 6.8 44.2 93 5.7 42.3
03:40 1018 30.06 848 25.04 6.8 44.2 93 5.7 42.3
03:45 1018 30.06 847 25.01 6.7 44 93 5.7 42.2
03:50 1018 30.06 847 25.01 6.6 43.9 94 5.7 42.2
03:55 1018 30.06 847 25.01 6.6 43.9 94 5.6 42.1
04:00 1018 30.06 848 25.04 6.6 43.9 94 5.7 42.2
04:05 1018 30.06 848 25.04 6.6 44 94 5.7 42.3
04:10 1018 30.06 848 25.04 6.6 43.9 93 5.6 42.1
04:15 1018 30.06 848 25.04 6.6 43.9 93 5.6 42.1
04:20 1018 30.06 848 25.04 6.7 44.1 93 5.7 42.2
04:25 1018 30.06 848 25.04 6.7 44.1 94 5.8 42.4
04:30 1018 30.06 848 25.04 6.7 44.1 93 5.7 42.3
04:35 1018 30.06 848 25.04 6.7 44 94 5.7 42.2
04:40 1018 30.06 848 25.04 6.6 44 94 5.7 42.2
04:45 1018 30.06 848 25.04 6.6 43.9 93 5.6 42.1
04:50 1018 30.06 848 25.04 6.6 43.8 94 5.6 42.1
04:55 1018 30.06 848 25.04 6.6 43.9 94 5.6 42.1
05:00 1018 30.06 848 25.04 6.5 43.6 93 5.5 41.8
05:05 1019 30.09 848 25.04 6.4 43.5 93 5.4 41.7
05:10 1019 30.09 848 25.04 6.3 43.4 93 5.3 41.6
05:15 1019 30.09 848 25.04 6.3 43.3 94 5.3 41.6
05:20 1019 30.09 848 25.04 6.3 43.3 93 5.3 41.5
05:25 1019 30.09 848 25.04 6.3 43.3 94 5.4 41.6
05:30 1019 30.09 848 25.04 6.3 43.3 94 5.3 41.6
05:35 1019 30.09 848 25.04 6.3 43.3 94 5.3 41.6
05:40 1019 30.09 848 25.04 6.2 43.1 93 5.2 41.4
05:45 1019 30.09 848 25.04 6.1 43 93 5.1 41.2
05:50 1019 30.09 848 25.04 6.1 43 93 5.1 41.1
05:55 1019 30.09 848 25.04 6.1 43 93 5 41
06:00 1019 30.09 848 25.04 6.1 43 93 5 41.1
06:05 1019 30.09 848 25.04 6 42.9 92 4.8 40.6
06:10 1019 30.09 848 25.04 5.7 42.3 92 4.5 40.1
06:15 1019 30.09 848 25.04 5.7 42.3 91 4.4 40
06:20 1019 30.09 848 25.04 5.7 42.2 92 4.4 40
06:25 1019 30.09 848 25.04 5.6 42.1 92 4.5 40
06:30 1019 30.09 848 25.04 5.6 42.1 92 4.3 39.8
06:35 1019 30.09 848 25.04 5.5 41.9 91 4.2 39.5
06:40 1019 30.09 848 25.04 5.5 41.9 92 4.2 39.6
06:45 1019 30.09 848 25.04 5.6 42 91 4.2 39.6
06:50 1019 30.09 848 25.04 5.6 42.1 91 4.3 39.8
06:55 1019 30.09 848 25.04 5.8 42.4 91 4.5 40
07:00 1019 30.09 848 25.04 5.9 42.6 90 4.4 39.9
07:05 1019 30.09 848 25.04 5.8 42.5 90 4.3 39.7
07:10 1019 30.09 848 25.04 5.8 42.4 89 4.1 39.4
07:15 1019 30.09 848 25.04 5.7 42.2 90 4.1 39.4
07:20 1019 30.09 848 25.04 5.6 42.1 89 3.9 39.1
07:25 1019 30.09 848 25.04 5.6 42.1 89 4 39.2
07:30 1019 30.09 848 25.04 5.6 42.1 90 4.1 39.4
07:35 1019 30.09 848 25.04 5.6 42.1 90 4.1 39.4
07:40 1019 30.09 848 25.04 5.6 42 89 3.8 38.9
07:45 1019 30.09 848 25.04 5.5 41.8 88 3.7 38.6
07:50 1019 30.09 848 25.04 5.4 41.8 89 3.7 38.7
07:55 1019 30.09 848 25.04 5.5 41.8 89 3.9 39
08:00 1019 30.09 848 25.04 5.4 41.8 87 3.5 38.3
08:05 1019 30.09 848 25.04 5.4 41.7 89 3.7 38.7
08:10 1019 30.09 848 25.04 5.4 41.7 88 3.6 38.6
08:15 1019 30.09 848 25.04 5.5 41.9 88 3.6 38.5
08:20 1019 30.09 849 25.07 5.5 42 88 3.8 38.8
08:25 1019 30.09 849 25.07 5.6 42.1 89 3.9 39
08:30 1019 30.09 849 25.07 5.7 42.2 89 4 39.2
08:35 1019 30.09 849 25.07 5.7 42.2 87 3.8 38.8
08:40 1019 30.09 849 25.07 5.7 42.2 87 3.7 38.7
08:45 1019 30.09 849 25.07 5.7 42.2 87 3.7 38.7
08:50 1019 30.09 849 25.07 5.7 42.2 87 3.7 38.6
08:55 1019 30.09 849 25.07 5.7 42.3 87 3.7 38.7
09:00 1020 30.12 849 25.07 5.8 42.5 87 3.7 38.7
09:05 1020 30.12 849 25.07 5.9 42.6 87 3.9 39
09:10 1020 30.12 849 25.07 6 42.7 88 4.1 39.4
09:15 1020 30.12 849 25.07 6.1 42.9 88 4.2 39.6
09:20 1020 30.12 849 25.07 6.1 43 88 4.3 39.8
09:25 1020 30.12 849 25.07 6.2 43.2 89 4.6 40.2
09:30 1020 30.12 849 25.07 6.3 43.4 88 4.5 40.1
09:35 1020 30.12 849 25.07 6.2 43.2 89 4.5 40.2
09:40 1020 30.12 849 25.07 6.3 43.3 90 4.7 40.5
09:45 1020 30.12 849 25.07 6.4 43.4 90 4.9 40.8
09:50 1020 30.12 849 25.07 6.4 43.6 92 5.2 41.4
09:55 1020 30.12 849 25.07 6.7 44 91 5.3 41.6
10:00 1020 30.12 849 25.07 6.8 44.2 91 5.4 41.7
10:05 1020 30.12 849 25.07 6.8 44.3 91 5.4 41.7
10:10 1020 30.12 849 25.07 6.8 44.3 90 5.4 41.7
10:15 1020 30.12 849 25.07 6.9 44.4 90 5.5 41.8
10:20 1020 30.12 849 25.07 7 44.6 90 5.4 41.7
10:25 1020 30.12 849 25.07 7.1 44.7 90 5.5 41.9
10:30 1020 30.12 849 25.07 7.1 44.8 89 5.5 41.9
10:35 1020 30.12 849 25.07 7.1 44.8 89 5.4 41.7
10:40 1020 30.12 849 25.07 7.1 44.9 89 5.4 41.8
10:45 1020 30.12 849 25.07 7.2 44.9 89 5.4 41.8
10:50 1020 30.12 849 25.07 7.1 44.9 89 5.5 41.9
10:55 1020 30.12 849 25.07 7.2 45 89 5.5 41.9
11:00 1020 30.12 849 25.07 7.2 44.9 89 5.4 41.8
11:05 1020 30.12 849 25.07 7.3 45.1 89 5.6 42.1
11:10 1020 30.12 849 25.07 7.4 45.2 87 5.3 41.5
11:15 1020 30.12 849 25.07 7.4 45.3 87 5.3 41.5
11:20 1020 30.12 849 25.07 7.3 45.1 87 5.3 41.6
11:25 1020 30.12 849 25.07 7.3 45.1 87 5.3 41.5
11:30 1020 30.12 849 25.07 7.3 45.2 88 5.4 41.8
11:35 1020 30.12 849 25.07 7.4 45.3 87 5.4 41.8
11:40 1020 30.12 849 25.07 7.3 45.2 87 5.4 41.6
11:45 1020 30.12 849 25.07 7.3 45.1 89 5.5 42
11:50 1020 30.12 849 25.07 7.3 45.2 90 5.8 42.4
11:55 1020 30.12 849 25.07 7.3 45.2 88 5.5 41.9
12:00 1020 30.12 849 25.07 7.2 45 89 5.4 41.8
12:05 1020 30.12 849 25.07 7.3 45.1 89 5.7 42.2
12:10 1020 30.12 849 25.07 7.4 45.3 89 5.7 42.2
12:15 1020 30.12 849 25.07 7.3 45.1 87 5.3 41.6
12:20 1020 30.12 849 25.07 7.3 45.2 89 5.6 42.1
12:25 1020 30.12 849 25.07 7.3 45.1 88 5.4 41.8
12:30 1020 30.12 849 25.07 7.3 45.1 87 5.3 41.6
12:35 1020 30.12 849 25.07 7.3 45.1 88 5.4 41.8
12:40 1020 30.12 850 25.1 7.2 45 88 5.3 41.6
12:45 1020 30.12 850 25.1 7.2 45 88 5.4 41.8
12:50 1020 30.12 850 25.1 7.2 45 89 5.5 41.8
12:55 1020 30.12 850 25.1 7.2 45 89 5.6 42
13:00 1021 30.15 850 25.1 7.3 45.1 89 5.6 42.2
13:05 1021 30.15 850 25.1 7.3 45.2 88 5.5 42
13:10 1021 30.15 850 25.1 7.3 45.1 89 5.5 42
13:15 1021 30.15 850 25.1 7.3 45.1 88 5.4 41.7
13:20 1021 30.15 850 25.1 7.2 45 88 5.4 41.8
13:25 1021 30.15 850 25.1 7.2 45 89 5.5 42
13:30 1021 30.15 850 25.1 7.3 45.1 88 5.4 41.7
13:35 1021 30.15 850 25.1 7.3 45.1 87 5.3 41.5
13:40 1021 30.15 850 25.1 7.3 45.1 88 5.4 41.7
13:45 1021 30.15 850 25.1 7.3 45.1 88 5.4 41.7
13:50 1021 30.15 850 25.1 7.2 45 89 5.5 41.9
13:55 1021 30.15 850 25.1 7.2 45 88 5.4 41.8
14:00 1021 30.15 850 25.1 7.2 45 90 5.6 42.1
14:05 1021 30.15 850 25.1 7.2 45 88 5.4 41.7
14:10 1021 30.15 850 25.1 7.2 44.9 89 5.5 41.9
14:15 1021 30.15 850 25.1 7.2 44.9 89 5.5 41.9
14:20 1021 30.15 850 25.1 7.2 44.9 89 5.5 41.9
14:25 1021 30.15 850 25.1 7.3 45.1 90 5.7 42.3
14:30 1021 30.15 850 25.1 7.3 45.1 90 5.7 42.2
14:35 1021 30.15 850 25.1 7.3 45.1 90 5.7 42.3
14:40 1021 30.15 850 25.1 7.3 45.1 90 5.7 42.3
14:45 1021 30.15 850 25.1 7.3 45.2 90 5.7 42.3
14:50 1021 30.15 850 25.1 7.3 45.1 90 5.7 42.3
14:55 1021 30.15 850 25.1 7.3 45.1 90 5.7 42.3
15:00 1021 30.15 850 25.1 7.3 45.2 90 5.8 42.4
15:05 1021 30.15 850 25.1 7.4 45.3 90 5.8 42.5
15:10 1021 30.15 850 25.1 7.4 45.4 90 5.9 42.5
15:15 1021 30.15 850 25.1 7.5 45.4 89 5.8 42.4
15:20 1021 30.15 850 25.1 7.5 45.5 90 5.9 42.7
15:25 1021 30.15 850 25.1 7.6 45.6 88 5.8 42.4
15:30 1021 30.15 850 25.1 7.5 45.6 88 5.8 42.4
15:35 1021 30.15 850 25.1 7.6 45.6 90 5.9 42.7
15:40 1021 30.15 850 25.1 7.6 45.6 89 5.9 42.6
15:45 1021 30.15 850 25.1 7.6 45.6 88 5.7 42.2
15:50 1021 30.15 850 25.1 7.5 45.5 89 5.8 42.5
15:55 1021 30.15 850 25.1 7.5 45.5 89 5.9 42.5
16:00 1021 30.15 850 25.1 7.5 45.5 90 5.9 42.6
16:05 1021 30.15 850 25.1 7.5 45.5 88 5.7 42.2
16:10 1021 30.15 850 25.1 7.5 45.4 89 5.8 42.4
16:15 1021 30.15 850 25.1 7.5 45.5 89 5.9 42.6
16:20 1021 30.15 850 25.1 7.5 45.5 90 5.9 42.7
16:25 1021 30.15 850 25.1 7.4 45.4 89 5.8 42.4
16:30 1021 30.15 850 25.1 7.3 45.2 89 5.7 42.2
16:35 1021 30.15 850 25.1 7.3 45.2 90 5.8 42.4
16:40 1021 30.15 850 25.1 7.3 45.1 90 5.8 42.4
16:45 1021 30.15 850 25.1 7.2 45 89 5.6 42.1
16:50 1021 30.15 850 25.1 7.2 45 90 5.7 42.3
16:55 1021 30.15 850 25.1 7.3 45.1 90 5.8 42.5
17:00 1021 30.15 850 25.1 7.3 45.2 91 5.9 42.7
17:05 1021 30.15 850 25.1 7.3 45.2 91 5.9 42.7
17:10 1021 30.15 850 25.1 7.3 45.2 91 5.9 42.6
17:15 1021 30.15 850 25.1 7.4 45.3 91 6.1 42.9
17:20 1021 30.15 850 25.1 7.4 45.4 91 6.1 42.9
17:25 1021 30.15 850 25.1 7.4 45.4 90 6 42.7
17:30 1021 30.15 850 25.1 7.5 45.4 91 6.1 42.9
17:35 1021 30.15 850 25.1 7.5 45.4 92 6.2 43.1
17:40 1021 30.15 850 25.1 7.5 45.6 92 6.3 43.4
17:45 1021 30.15 850 25.1 7.7 45.8 92 6.5 43.7
17:50 1021 30.15 850 25.1 7.8 46 92 6.6 43.8
17:55 1021 30.15 850 25.1 7.9 46.2 92 6.6 43.9
18:00 1021 30.15 850 25.1 7.9 46.3 91 6.6 43.9
18:05 1021 30.15 850 25.1 7.9 46.3 91 6.6 43.8
18:10 1021 30.15 850 25.1 8 46.3 91 6.6 43.8
18:15 1021 30.15 850 25.1 7.9 46.3 90 6.5 43.6
18:20 1021 30.15 850 25.1 7.9 46.3 90 6.5 43.6
18:25 1021 30.15 850 25.1 7.9 46.2 90 6.4 43.6
18:30 1021 30.15 850 25.1 7.9 46.2 91 6.5 43.6
18:35 1021 30.15 851 25.13 7.9 46.2 91 6.5 43.7
18:40 1021 30.15 851 25.13 7.9 46.2 91 6.5 43.8
18:45 1021 30.15 851 25.13 7.9 46.1 91 6.4 43.6
18:50 1021 30.15 851 25.13 7.8 46 91 6.3 43.4
18:55 1021 30.15 851 25.13 7.7 45.9 91 6.3 43.3
19:00 1021 30.15 851 25.13 7.7 45.8 91 6.3 43.3
19:05 1021 30.15 851 25.13 7.6 45.7 91 6.3 43.4
19:10 1022 30.18 851 25.13 7.6 45.7 92 6.3 43.4
19:15 1022 30.18 851 25.13 7.6 45.7 92 6.4 43.5
19:20 1022 30.18 851 25.13 7.6 45.7 92 6.4 43.4
19:25 1022 30.18 851 25.13 7.6 45.7 92 6.4 43.4
19:30 1022 30.18 851 25.13 7.6 45.7 92 6.3 43.4
19:35 1022 30.18 851 25.13 7.6 45.7 92 6.4 43.5
19:40 1022 30.18 851 25.13 7.6 45.7 92 6.3 43.4
19:45 1022 30.18 851 25.13 7.6 45.6 92 6.4 43.5
19:50 1022 30.18 851 25.13 7.6 45.7 92 6.4 43.5
19:55 1022 30.18 851 25.13 7.6 45.7 92 6.4 43.6
20:00 1022 30.18 851 25.13 7.6 45.6 92 6.4 43.5
20:05 1022 30.18 851 25.13 7.6 45.6 92 6.4 43.5
20:10 1022 30.18 851 25.13 7.6 45.6 92 6.4 43.5
20:15 1022 30.18 851 25.13 7.5 45.5 92 6.3 43.4
20:20 1022 30.18 851 25.13 7.5 45.5 92 6.4 43.4
20:25 1022 30.18 851 25.13 7.5 45.5 93 6.4 43.5
20:30 1022 30.18 851 25.13 7.5 45.4 93 6.4 43.4
20:35 1022 30.18 851 25.13 7.4 45.4 93 6.3 43.4
20:40 1022 30.18 851 25.13 7.5 45.4 93 6.4 43.5
20:45 1022 30.18 851 25.13 7.5 45.4 93 6.3 43.4
20:50 1022 30.18 851 25.13 7.4 45.4 93 6.3 43.4
20:55 1022 30.18 851 25.13 7.5 45.4 93 6.4 43.5
21:00 1022 30.18 851 25.13 7.4 45.3 93 6.3 43.4
21:05 1022 30.18 851 25.13 7.4 45.3 93 6.3 43.3
21:10 1022 30.18 851 25.13 7.4 45.2 93 6.3 43.3
21:15 1022 30.18 851 25.13 7.3 45.2 93 6.3 43.3
21:20 1022 30.18 851 25.13 7.3 45.1 93 6.3 43.3
21:25 1022 30.18 851 25.13 7.3 45.1 93 6.3 43.3
21:30 1022 30.18 851 25.13 7.3 45.1 93 6.3 43.3
21:35 1022 30.18 851 25.13 7.3 45.1 93 6.3 43.3
21:40 1022 30.18 851 25.13 7.3 45.1 93 6.3 43.3
21:45 1022 30.18 851 25.13 7.3 45.1 94 6.3 43.3
21:50 1022 30.18 851 25.13 7.3 45.1 94 6.3 43.3
21:55 1022 30.18 851 25.13 7.3 45.1 94 6.3 43.3
22:00 1022 30.18 851 25.13 7.3 45.1 93 6.3 43.3
22:05 1022 30.18 851 25.13 7.3 45.1 94 6.3 43.3
22:10 1022 30.18 851 25.13 7.3 45.1 94 6.3 43.4
22:15 1022 30.18 851 25.13 7.3 45.1 93 6.3 43.3
22:20 1022 30.18 851 25.13 7.2 45 93 6.2 43.2
22:25 1022 30.18 851 25.13 7.2 45 94 6.3 43.3
22:30 1022 30.18 851 25.13 7.3 45.1 94 6.3 43.3
22:35 1022 30.18 851 25.13 7.3 45.1 94 6.3 43.4
22:40 1022 30.18 851 25.13 7.3 45.1 94 6.3 43.4
22:45 1022 30.18 851 25.13 7.3 45.1 94 6.3 43.3
22:50 1022 30.18 851 25.13 7.3 45.1 94 6.3 43.3
22:55 1022 30.18 851 25.13 7.3 45.1 94 6.3 43.4
23:00 1022 30.18 851 25.13 7.3 45.1 94 6.3 43.4
23:05 1022 30.18 851 25.13 7.3 45.1 94 6.3 43.3
23:10 1022 30.18 851 25.13 7.3 45.2 94 6.3 43.4
23:15 1022 30.18 851 25.13 7.4 45.2 94 6.4 43.5
23:20 1022 30.18 851 25.13 7.3 45.2 94 6.4 43.5
23:25 1022 30.18 851 25.13 7.3 45.2 94 6.4 43.5
23:30 1022 30.18 851 25.13 7.3 45.2 94 6.4 43.5
23:35 1022 30.18 851 25.13 7.3 45.1 94 6.3 43.4
23:40 1022 30.18 851 25.13 7.3 45.1 94 6.4 43.5
23:45 1022 30.18 851 25.13 7.3 45.2 94 6.4 43.5
23:50 1022 30.18 851 25.13 7.3 45.2 94 6.4 43.5
23:55 1022 30.18 851 25.13 7.4 45.2 94 6.4 43.5
24:00 1022 30.18 851 25.13 7.3 45.2 94 6.4 43.5